sensor_id;sensor_type;location;lat;lon;timestamp;P1;durP1;ratioP1;P2;durP2;ratioP2
31073;SDS011;17730;53.552;9.940;2022-08-03T00:01:49;12.63;;;5.30;;
31073;SDS011;17730;53.552;9.940;2022-08-03T00:04:14;11.80;;;5.55;;
31073;SDS011;17730;53.552;9.940;2022-08-03T00:06:40;8.55;;;5.47;;
31073;SDS011;17730;53.552;9.940;2022-08-03T00:09:06;9.60;;;4.95;;
31073;SDS011;17730;53.552;9.940;2022-08-03T00:11:32;13.60;;;5.47;;
31073;SDS011;17730;53.552;9.940;2022-08-03T00:13:58;11.57;;;5.15;;
31073;SDS011;17730;53.552;9.940;2022-08-03T00:16:23;9.70;;;5.30;;
31073;SDS011;17730;53.552;9.940;2022-08-03T00:18:50;10.85;;;5.18;;
31073;SDS011;17730;53.552;9.940;2022-08-03T00:21:19;9.85;;;5.10;;
31073;SDS011;17730;53.552;9.940;2022-08-03T00:23:44;15.07;;;5.47;;
31073;SDS011;17730;53.552;9.940;2022-08-03T00:26:10;12.63;;;5.38;;
31073;SDS011;17730;53.552;9.940;2022-08-03T00:28:35;12.93;;;5.03;;
31073;SDS011;17730;53.552;9.940;2022-08-03T00:31:01;27.30;;;6.60;;
31073;SDS011;17730;53.552;9.940;2022-08-03T00:33:27;10.80;;;5.03;;
31073;SDS011;17730;53.552;9.940;2022-08-03T00:35:52;15.95;;;5.85;;
31073;SDS011;17730;53.552;9.940;2022-08-03T00:38:18;11.75;;;5.47;;
31073;SDS011;17730;53.552;9.940;2022-08-03T00:40:44;10.02;;;5.90;;
31073;SDS011;17730;53.552;9.940;2022-08-03T00:43:10;11.93;;;5.07;;
31073;SDS011;17730;53.552;9.940;2022-08-03T00:45:37;12.65;;;6.35;;
31073;SDS011;17730;53.552;9.940;2022-08-03T00:48:04;10.52;;;5.65;;
31073;SDS011;17730;53.552;9.940;2022-08-03T00:50:33;12.43;;;5.90;;
31073;SDS011;17730;53.552;9.940;2022-08-03T00:52:59;15.20;;;5.55;;
31073;SDS011;17730;53.552;9.940;2022-08-03T00:55:27;11.63;;;5.47;;
31073;SDS011;17730;53.552;9.940;2022-08-03T00:57:53;6.07;;;4.75;;
31073;SDS011;17730;53.552;9.940;2022-08-03T01:00:21;11.05;;;5.15;;
31073;SDS011;17730;53.552;9.940;2022-08-03T01:02:48;10.55;;;5.65;;
31073;SDS011;17730;53.552;9.940;2022-08-03T01:05:14;9.50;;;5.10;;
31073;SDS011;17730;53.552;9.940;2022-08-03T01:07:41;8.80;;;5.43;;
31073;SDS011;17730;53.552;9.940;2022-08-03T01:12:58;8.20;;;5.20;;
31073;SDS011;17730;53.552;9.940;2022-08-03T01:15:41;10.70;;;5.07;;
31073;SDS011;17730;53.552;9.940;2022-08-03T01:18:15;6.80;;;5.10;;
31073;SDS011;17730;53.552;9.940;2022-08-03T01:20:50;8.32;;;5.38;;
31073;SDS011;17730;53.552;9.940;2022-08-03T01:26:27;5.75;;;4.70;;
31073;SDS011;17730;53.552;9.940;2022-08-03T01:28:58;6.18;;;5.35;;
31073;SDS011;17730;53.552;9.940;2022-08-03T01:31:42;8.98;;;5.05;;
31073;SDS011;17730;53.552;9.940;2022-08-03T01:34:13;7.40;;;5.28;;
31073;SDS011;17730;53.552;9.940;2022-08-03T01:36:51;7.38;;;5.22;;
31073;SDS011;17730;53.552;9.940;2022-08-03T01:39:19;8.65;;;5.35;;
31073;SDS011;17730;53.552;9.940;2022-08-03T01:41:55;10.60;;;5.53;;
31073;SDS011;17730;53.552;9.940;2022-08-03T01:44:30;8.07;;;5.03;;
31073;SDS011;17730;53.552;9.940;2022-08-03T01:47:01;6.78;;;5.55;;
31073;SDS011;17730;53.552;9.940;2022-08-03T01:49:29;8.05;;;5.65;;
31073;SDS011;17730;53.552;9.940;2022-08-03T01:51:59;6.57;;;5.07;;
31073;SDS011;17730;53.552;9.940;2022-08-03T01:54:26;7.95;;;5.10;;
31073;SDS011;17730;53.552;9.940;2022-08-03T01:56:53;10.35;;;5.50;;
31073;SDS011;17730;53.552;9.940;2022-08-03T01:59:22;7.75;;;5.40;;
31073;SDS011;17730;53.552;9.940;2022-08-03T02:01:50;10.50;;;5.47;;
31073;SDS011;17730;53.552;9.940;2022-08-03T02:04:17;8.93;;;6.18;;
31073;SDS011;17730;53.552;9.940;2022-08-03T02:06:45;10.55;;;6.57;;
31073;SDS011;17730;53.552;9.940;2022-08-03T02:09:12;12.40;;;5.55;;
31073;SDS011;17730;53.552;9.940;2022-08-03T02:11:39;8.35;;;5.88;;
31073;SDS011;17730;53.552;9.940;2022-08-03T02:14:07;13.73;;;5.93;;
31073;SDS011;17730;53.552;9.940;2022-08-03T02:16:34;8.80;;;5.95;;
31073;SDS011;17730;53.552;9.940;2022-08-03T02:19:01;9.70;;;5.75;;
31073;SDS011;17730;53.552;9.940;2022-08-03T02:21:30;12.68;;;6.13;;
31073;SDS011;17730;53.552;9.940;2022-08-03T02:23:59;11.07;;;6.20;;
31073;SDS011;17730;53.552;9.940;2022-08-03T02:26:26;9.48;;;6.55;;
31073;SDS011;17730;53.552;9.940;2022-08-03T02:28:54;8.38;;;5.68;;
31073;SDS011;17730;53.552;9.940;2022-08-03T02:31:23;7.10;;;6.28;;
31073;SDS011;17730;53.552;9.940;2022-08-03T02:33:55;10.25;;;6.35;;
31073;SDS011;17730;53.552;9.940;2022-08-03T02:36:34;6.95;;;6.22;;
31073;SDS011;17730;53.552;9.940;2022-08-03T02:39:03;11.07;;;6.68;;
31073;SDS011;17730;53.552;9.940;2022-08-03T02:41:31;11.75;;;6.75;;
31073;SDS011;17730;53.552;9.940;2022-08-03T02:44:10;10.20;;;6.72;;
31073;SDS011;17730;53.552;9.940;2022-08-03T02:46:37;13.18;;;6.95;;
31073;SDS011;17730;53.552;9.940;2022-08-03T02:49:05;9.35;;;6.65;;
31073;SDS011;17730;53.552;9.940;2022-08-03T02:51:32;8.55;;;6.78;;
31073;SDS011;17730;53.552;9.940;2022-08-03T02:54:01;9.07;;;6.68;;
31073;SDS011;17730;53.552;9.940;2022-08-03T02:56:28;12.55;;;7.32;;
31073;SDS011;17730;53.552;9.940;2022-08-03T02:58:55;12.30;;;6.45;;
31073;SDS011;17730;53.552;9.940;2022-08-03T03:01:22;9.73;;;6.40;;
31073;SDS011;17730;53.552;9.940;2022-08-03T03:03:49;11.57;;;6.40;;
31073;SDS011;17730;53.552;9.940;2022-08-03T03:06:18;10.27;;;6.32;;
31073;SDS011;17730;53.552;9.940;2022-08-03T03:08:44;10.18;;;7.03;;
31073;SDS011;17730;53.552;9.940;2022-08-03T03:11:12;8.05;;;6.72;;
31073;SDS011;17730;53.552;9.940;2022-08-03T03:13:40;10.93;;;6.97;;
31073;SDS011;17730;53.552;9.940;2022-08-03T03:16:08;10.90;;;7.72;;
31073;SDS011;17730;53.552;9.940;2022-08-03T03:18:36;8.85;;;7.15;;
31073;SDS011;17730;53.552;9.940;2022-08-03T03:21:03;10.23;;;7.43;;
31073;SDS011;17730;53.552;9.940;2022-08-03T03:23:31;8.85;;;7.22;;
31073;SDS011;17730;53.552;9.940;2022-08-03T03:26:01;13.02;;;7.43;;
31073;SDS011;17730;53.552;9.940;2022-08-03T03:28:27;9.50;;;7.22;;
31073;SDS011;17730;53.552;9.940;2022-08-03T03:30:53;10.65;;;6.90;;
31073;SDS011;17730;53.552;9.940;2022-08-03T03:33:18;12.25;;;7.70;;
31073;SDS011;17730;53.552;9.940;2022-08-03T03:35:45;12.13;;;7.40;;
31073;SDS011;17730;53.552;9.940;2022-08-03T03:38:11;8.35;;;6.68;;
31073;SDS011;17730;53.552;9.940;2022-08-03T03:40:37;11.50;;;7.05;;
31073;SDS011;17730;53.552;9.940;2022-08-03T03:43:06;9.77;;;6.80;;
31073;SDS011;17730;53.552;9.940;2022-08-03T03:45:34;12.85;;;7.75;;
31073;SDS011;17730;53.552;9.940;2022-08-03T03:48:00;13.18;;;7.20;;
31073;SDS011;17730;53.552;9.940;2022-08-03T03:50:27;10.65;;;7.25;;
31073;SDS011;17730;53.552;9.940;2022-08-03T03:52:55;9.82;;;7.28;;
31073;SDS011;17730;53.552;9.940;2022-08-03T03:55:20;10.40;;;7.40;;
31073;SDS011;17730;53.552;9.940;2022-08-03T03:57:46;7.20;;;6.30;;
31073;SDS011;17730;53.552;9.940;2022-08-03T04:00:12;7.18;;;6.45;;
31073;SDS011;17730;53.552;9.940;2022-08-03T04:02:39;10.80;;;7.25;;
31073;SDS011;17730;53.552;9.940;2022-08-03T04:05:05;9.55;;;7.03;;
31073;SDS011;17730;53.552;9.940;2022-08-03T04:07:59;10.23;;;6.85;;
31073;SDS011;17730;53.552;9.940;2022-08-03T04:11:29;10.88;;;6.35;;
31073;SDS011;17730;53.552;9.940;2022-08-03T04:16:16;11.32;;;6.30;;
31073;SDS011;17730;53.552;9.940;2022-08-03T04:18:45;6.93;;;6.22;;
31073;SDS011;17730;53.552;9.940;2022-08-03T04:21:15;15.02;;;6.72;;
31073;SDS011;17730;53.552;9.940;2022-08-03T04:23:45;11.18;;;6.22;;
31073;SDS011;17730;53.552;9.940;2022-08-03T04:26:14;12.18;;;6.70;;
31073;SDS011;17730;53.552;9.940;2022-08-03T04:28:43;11.73;;;7.03;;
31073;SDS011;17730;53.552;9.940;2022-08-03T04:31:11;12.82;;;6.97;;
31073;SDS011;17730;53.552;9.940;2022-08-03T04:33:38;11.80;;;6.47;;
31073;SDS011;17730;53.552;9.940;2022-08-03T04:36:08;8.50;;;5.97;;
31073;SDS011;17730;53.552;9.940;2022-08-03T04:38:47;12.82;;;6.85;;
31073;SDS011;17730;53.552;9.940;2022-08-03T04:43:56;12.77;;;6.32;;
31073;SDS011;17730;53.552;9.940;2022-08-03T04:46:25;10.40;;;6.32;;
31073;SDS011;17730;53.552;9.940;2022-08-03T04:48:52;9.82;;;6.72;;
31073;SDS011;17730;53.552;9.940;2022-08-03T04:51:18;11.73;;;6.50;;
31073;SDS011;17730;53.552;9.940;2022-08-03T04:53:44;12.30;;;6.00;;
31073;SDS011;17730;53.552;9.940;2022-08-03T04:56:10;19.42;;;6.82;;
31073;SDS011;17730;53.552;9.940;2022-08-03T04:58:36;8.57;;;6.32;;
31073;SDS011;17730;53.552;9.940;2022-08-03T05:01:02;12.52;;;6.43;;
31073;SDS011;17730;53.552;9.940;2022-08-03T05:03:27;12.90;;;6.57;;
31073;SDS011;17730;53.552;9.940;2022-08-03T05:05:53;11.88;;;6.88;;
31073;SDS011;17730;53.552;9.940;2022-08-03T05:08:20;12.68;;;7.22;;
31073;SDS011;17730;53.552;9.940;2022-08-03T05:10:47;16.65;;;7.38;;
31073;SDS011;17730;53.552;9.940;2022-08-03T05:13:13;12.65;;;7.25;;
31073;SDS011;17730;53.552;9.940;2022-08-03T05:15:39;8.77;;;6.65;;
31073;SDS011;17730;53.552;9.940;2022-08-03T05:18:06;10.38;;;7.43;;
31073;SDS011;17730;53.552;9.940;2022-08-03T05:20:32;11.52;;;7.15;;
31073;SDS011;17730;53.552;9.940;2022-08-03T05:22:58;15.85;;;7.10;;
31073;SDS011;17730;53.552;9.940;2022-08-03T05:25:31;15.10;;;6.95;;
31073;SDS011;17730;53.552;9.940;2022-08-03T05:27:57;10.88;;;7.60;;
31073;SDS011;17730;53.552;9.940;2022-08-03T05:30:23;13.05;;;7.13;;
31073;SDS011;17730;53.552;9.940;2022-08-03T05:32:48;8.00;;;6.80;;
31073;SDS011;17730;53.552;9.940;2022-08-03T05:35:14;7.70;;;6.90;;
31073;SDS011;17730;53.552;9.940;2022-08-03T05:37:39;22.98;;;7.10;;
31073;SDS011;17730;53.552;9.940;2022-08-03T05:40:06;10.43;;;7.00;;
31073;SDS011;17730;53.552;9.940;2022-08-03T05:42:32;8.02;;;7.20;;
31073;SDS011;17730;53.552;9.940;2022-08-03T05:45:02;19.48;;;8.10;;
31073;SDS011;17730;53.552;9.940;2022-08-03T05:47:38;11.63;;;7.55;;
31073;SDS011;17730;53.552;9.940;2022-08-03T05:50:05;19.55;;;8.35;;
31073;SDS011;17730;53.552;9.940;2022-08-03T05:52:30;15.30;;;6.88;;
31073;SDS011;17730;53.552;9.940;2022-08-03T05:54:56;14.75;;;7.93;;
31073;SDS011;17730;53.552;9.940;2022-08-03T05:57:22;13.82;;;6.68;;
31073;SDS011;17730;53.552;9.940;2022-08-03T05:59:47;11.48;;;6.75;;
31073;SDS011;17730;53.552;9.940;2022-08-03T06:02:13;20.25;;;6.60;;
31073;SDS011;17730;53.552;9.940;2022-08-03T06:04:38;21.13;;;7.30;;
31073;SDS011;17730;53.552;9.940;2022-08-03T06:07:04;14.95;;;6.80;;
31073;SDS011;17730;53.552;9.940;2022-08-03T06:09:30;27.42;;;6.70;;
31073;SDS011;17730;53.552;9.940;2022-08-03T06:11:56;16.70;;;6.38;;
31073;SDS011;17730;53.552;9.940;2022-08-03T06:14:21;15.23;;;6.15;;
31073;SDS011;17730;53.552;9.940;2022-08-03T06:16:47;19.88;;;6.00;;
31073;SDS011;17730;53.552;9.940;2022-08-03T06:19:14;15.13;;;6.25;;
31073;SDS011;17730;53.552;9.940;2022-08-03T06:21:39;16.55;;;6.68;;
31073;SDS011;17730;53.552;9.940;2022-08-03T06:24:05;16.95;;;6.53;;
31073;SDS011;17730;53.552;9.940;2022-08-03T06:26:31;12.07;;;5.93;;
31073;SDS011;17730;53.552;9.940;2022-08-03T06:28:56;18.33;;;5.88;;
31073;SDS011;17730;53.552;9.940;2022-08-03T06:31:23;15.40;;;5.90;;
31073;SDS011;17730;53.552;9.940;2022-08-03T06:33:51;17.20;;;6.72;;
31073;SDS011;17730;53.552;9.940;2022-08-03T06:36:22;19.27;;;7.85;;
31073;SDS011;17730;53.552;9.940;2022-08-03T06:38:59;17.67;;;7.53;;
31073;SDS011;17730;53.552;9.940;2022-08-03T06:41:26;18.20;;;7.18;;
31073;SDS011;17730;53.552;9.940;2022-08-03T06:43:52;19.88;;;7.95;;
31073;SDS011;17730;53.552;9.940;2022-08-03T06:46:18;15.13;;;6.80;;
31073;SDS011;17730;53.552;9.940;2022-08-03T06:48:44;23.02;;;7.82;;
31073;SDS011;17730;53.552;9.940;2022-08-03T06:51:10;11.70;;;6.90;;
31073;SDS011;17730;53.552;9.940;2022-08-03T06:53:36;18.33;;;6.60;;
31073;SDS011;17730;53.552;9.940;2022-08-03T06:56:05;13.52;;;8.13;;
31073;SDS011;17730;53.552;9.940;2022-08-03T06:58:32;13.25;;;6.32;;
31073;SDS011;17730;53.552;9.940;2022-08-03T07:00:58;14.45;;;6.32;;
31073;SDS011;17730;53.552;9.940;2022-08-03T07:03:24;12.10;;;5.63;;
31073;SDS011;17730;53.552;9.940;2022-08-03T07:05:51;15.55;;;5.65;;
31073;SDS011;17730;53.552;9.940;2022-08-03T07:08:17;16.45;;;5.88;;
31073;SDS011;17730;53.552;9.940;2022-08-03T07:10:43;14.98;;;3.78;;
31073;SDS011;17730;53.552;9.940;2022-08-03T07:13:09;7.85;;;4.63;;
31073;SDS011;17730;53.552;9.940;2022-08-03T07:15:35;7.38;;;4.35;;
31073;SDS011;17730;53.552;9.940;2022-08-03T07:18:01;12.95;;;4.35;;
31073;SDS011;17730;53.552;9.940;2022-08-03T07:20:27;17.13;;;3.70;;
31073;SDS011;17730;53.552;9.940;2022-08-03T07:22:52;10.13;;;4.43;;
31073;SDS011;17730;53.552;9.940;2022-08-03T07:25:18;14.77;;;4.10;;
31073;SDS011;17730;53.552;9.940;2022-08-03T07:27:44;7.45;;;4.18;;
31073;SDS011;17730;53.552;9.940;2022-08-03T07:30:11;7.55;;;3.33;;
31073;SDS011;17730;53.552;9.940;2022-08-03T07:32:37;8.38;;;3.25;;
31073;SDS011;17730;53.552;9.940;2022-08-03T07:35:03;8.63;;;3.53;;
31073;SDS011;17730;53.552;9.940;2022-08-03T07:37:30;11.38;;;3.67;;
31073;SDS011;17730;53.552;9.940;2022-08-03T07:39:57;14.07;;;3.83;;
31073;SDS011;17730;53.552;9.940;2022-08-03T07:42:23;4.70;;;3.25;;
31073;SDS011;17730;53.552;9.940;2022-08-03T07:44:49;5.95;;;3.45;;
31073;SDS011;17730;53.552;9.940;2022-08-03T07:47:21;4.75;;;3.03;;
31073;SDS011;17730;53.552;9.940;2022-08-03T07:49:49;8.95;;;3.58;;
31073;SDS011;17730;53.552;9.940;2022-08-03T07:52:15;10.38;;;3.00;;
31073;SDS011;17730;53.552;9.940;2022-08-03T07:54:59;9.45;;;3.30;;
31073;SDS011;17730;53.552;9.940;2022-08-03T07:57:24;3.90;;;2.90;;
31073;SDS011;17730;53.552;9.940;2022-08-03T07:59:50;7.32;;;3.45;;
31073;SDS011;17730;53.552;9.940;2022-08-03T08:02:16;6.63;;;3.42;;
31073;SDS011;17730;53.552;9.940;2022-08-03T08:04:41;6.55;;;3.08;;
31073;SDS011;17730;53.552;9.940;2022-08-03T08:07:07;5.22;;;2.97;;
31073;SDS011;17730;53.552;9.940;2022-08-03T08:09:32;4.18;;;2.97;;
31073;SDS011;17730;53.552;9.940;2022-08-03T08:11:58;9.18;;;3.20;;
31073;SDS011;17730;53.552;9.940;2022-08-03T08:14:24;6.45;;;2.67;;
31073;SDS011;17730;53.552;9.940;2022-08-03T08:16:50;4.40;;;2.65;;
31073;SDS011;17730;53.552;9.940;2022-08-03T08:19:15;6.65;;;3.88;;
31073;SDS011;17730;53.552;9.940;2022-08-03T08:21:42;10.00;;;4.32;;
31073;SDS011;17730;53.552;9.940;2022-08-03T08:24:08;5.88;;;3.20;;
31073;SDS011;17730;53.552;9.940;2022-08-03T08:26:34;8.25;;;3.65;;
31073;SDS011;17730;53.552;9.940;2022-08-03T08:28:59;10.15;;;3.40;;
31073;SDS011;17730;53.552;9.940;2022-08-03T08:31:25;9.85;;;2.97;;
31073;SDS011;17730;53.552;9.940;2022-08-03T08:33:51;5.38;;;3.17;;
31073;SDS011;17730;53.552;9.940;2022-08-03T08:36:16;9.43;;;2.78;;
31073;SDS011;17730;53.552;9.940;2022-08-03T08:38:42;6.18;;;3.00;;
31073;SDS011;17730;53.552;9.940;2022-08-03T08:41:09;8.15;;;3.90;;
31073;SDS011;17730;53.552;9.940;2022-08-03T08:43:35;8.35;;;3.13;;
31073;SDS011;17730;53.552;9.940;2022-08-03T08:46:01;10.48;;;3.30;;
31073;SDS011;17730;53.552;9.940;2022-08-03T08:48:27;9.57;;;3.25;;
31073;SDS011;17730;53.552;9.940;2022-08-03T08:50:54;4.70;;;2.75;;
31073;SDS011;17730;53.552;9.940;2022-08-03T08:53:21;6.57;;;3.00;;
31073;SDS011;17730;53.552;9.940;2022-08-03T08:55:51;7.18;;;3.35;;
31073;SDS011;17730;53.552;9.940;2022-08-03T08:58:19;7.10;;;3.20;;
31073;SDS011;17730;53.552;9.940;2022-08-03T09:00:46;5.80;;;2.88;;
31073;SDS011;17730;53.552;9.940;2022-08-03T09:03:12;12.20;;;3.00;;
31073;SDS011;17730;53.552;9.940;2022-08-03T09:05:40;7.88;;;3.08;;
31073;SDS011;17730;53.552;9.940;2022-08-03T09:08:07;9.25;;;2.97;;
31073;SDS011;17730;53.552;9.940;2022-08-03T09:10:32;9.20;;;3.08;;
31073;SDS011;17730;53.552;9.940;2022-08-03T09:12:58;7.60;;;3.03;;
31073;SDS011;17730;53.552;9.940;2022-08-03T09:15:25;3.63;;;2.50;;
31073;SDS011;17730;53.552;9.940;2022-08-03T09:17:56;6.93;;;2.85;;
31073;SDS011;17730;53.552;9.940;2022-08-03T09:20:27;8.00;;;2.70;;
31073;SDS011;17730;53.552;9.940;2022-08-03T09:22:55;9.63;;;3.30;;
31073;SDS011;17730;53.552;9.940;2022-08-03T09:25:26;10.00;;;3.03;;
31073;SDS011;17730;53.552;9.940;2022-08-03T09:28:03;7.60;;;2.90;;
31073;SDS011;17730;53.552;9.940;2022-08-03T09:30:30;7.55;;;2.78;;
31073;SDS011;17730;53.552;9.940;2022-08-03T09:32:59;9.05;;;2.78;;
31073;SDS011;17730;53.552;9.940;2022-08-03T09:35:26;7.95;;;2.60;;
31073;SDS011;17730;53.552;9.940;2022-08-03T09:40:56;6.30;;;3.00;;
31073;SDS011;17730;53.552;9.940;2022-08-03T09:43:22;13.63;;;2.67;;
31073;SDS011;17730;53.552;9.940;2022-08-03T09:45:49;6.30;;;2.50;;
31073;SDS011;17730;53.552;9.940;2022-08-03T09:48:26;11.48;;;2.63;;
31073;SDS011;17730;53.552;9.940;2022-08-03T09:50:56;5.40;;;2.40;;
31073;SDS011;17730;53.552;9.940;2022-08-03T09:53:24;8.02;;;2.17;;
31073;SDS011;17730;53.552;9.940;2022-08-03T09:58:18;7.95;;;2.50;;
31073;SDS011;17730;53.552;9.940;2022-08-03T10:00:51;11.77;;;3.15;;
31073;SDS011;17730;53.552;9.940;2022-08-03T10:03:20;7.00;;;2.47;;
31073;SDS011;17730;53.552;9.940;2022-08-03T10:05:46;6.32;;;2.38;;
31073;SDS011;17730;53.552;9.940;2022-08-03T10:08:15;8.30;;;3.30;;
31073;SDS011;17730;53.552;9.940;2022-08-03T10:10:42;6.47;;;2.67;;
31073;SDS011;17730;53.552;9.940;2022-08-03T10:13:12;6.93;;;3.08;;
31073;SDS011;17730;53.552;9.940;2022-08-03T10:15:38;5.68;;;2.60;;
31073;SDS011;17730;53.552;9.940;2022-08-03T10:18:04;9.57;;;2.55;;
31073;SDS011;17730;53.552;9.940;2022-08-03T10:20:30;6.40;;;2.42;;
31073;SDS011;17730;53.552;9.940;2022-08-03T10:23:00;11.57;;;2.47;;
31073;SDS011;17730;53.552;9.940;2022-08-03T10:25:26;7.13;;;2.40;;
31073;SDS011;17730;53.552;9.940;2022-08-03T10:27:55;11.25;;;3.10;;
31073;SDS011;17730;53.552;9.940;2022-08-03T10:30:22;4.75;;;2.08;;
31073;SDS011;17730;53.552;9.940;2022-08-03T10:32:54;7.35;;;2.90;;
31073;SDS011;17730;53.552;9.940;2022-08-03T10:35:24;8.20;;;3.40;;
31073;SDS011;17730;53.552;9.940;2022-08-03T10:38:03;5.70;;;2.45;;
31073;SDS011;17730;53.552;9.940;2022-08-03T10:40:35;7.20;;;2.58;;
31073;SDS011;17730;53.552;9.940;2022-08-03T10:43:12;12.32;;;3.15;;
31073;SDS011;17730;53.552;9.940;2022-08-03T10:45:48;9.48;;;3.08;;
31073;SDS011;17730;53.552;9.940;2022-08-03T10:48:15;12.65;;;2.53;;
31073;SDS011;17730;53.552;9.940;2022-08-03T10:50:41;6.22;;;2.20;;
31073;SDS011;17730;53.552;9.940;2022-08-03T10:53:08;12.00;;;2.45;;
31073;SDS011;17730;53.552;9.940;2022-08-03T11:01:06;11.00;;;2.67;;
31073;SDS011;17730;53.552;9.940;2022-08-03T11:03:33;11.00;;;3.03;;
31073;SDS011;17730;53.552;9.940;2022-08-03T11:06:19;8.90;;;2.75;;
31073;SDS011;17730;53.552;9.940;2022-08-03T11:08:47;6.40;;;2.80;;
31073;SDS011;17730;53.552;9.940;2022-08-03T11:16:27;7.07;;;3.50;;
31073;SDS011;17730;53.552;9.940;2022-08-03T11:19:00;4.57;;;2.28;;
31073;SDS011;17730;53.552;9.940;2022-08-03T11:35:07;7.13;;;2.50;;
31073;SDS011;17730;53.552;9.940;2022-08-03T11:38:00;7.65;;;2.55;;
31073;SDS011;17730;53.552;9.940;2022-08-03T11:40:31;9.80;;;2.45;;
31073;SDS011;17730;53.552;9.940;2022-08-03T11:43:07;5.53;;;2.45;;
31073;SDS011;17730;53.552;9.940;2022-08-03T11:46:10;8.13;;;2.85;;
31073;SDS011;17730;53.552;9.940;2022-08-03T11:48:46;7.70;;;2.83;;
31073;SDS011;17730;53.552;9.940;2022-08-03T11:51:28;8.40;;;3.00;;
31073;SDS011;17730;53.552;9.940;2022-08-03T11:54:02;5.88;;;2.08;;
31073;SDS011;17730;53.552;9.940;2022-08-03T11:56:42;7.20;;;2.28;;
31073;SDS011;17730;53.552;9.940;2022-08-03T11:59:09;5.45;;;2.40;;
31073;SDS011;17730;53.552;9.940;2022-08-03T12:01:35;5.93;;;2.35;;
31073;SDS011;17730;53.552;9.940;2022-08-03T12:04:02;9.23;;;2.85;;
31073;SDS011;17730;53.552;9.940;2022-08-03T12:06:28;8.85;;;3.08;;
31073;SDS011;17730;53.552;9.940;2022-08-03T12:08:54;5.25;;;2.58;;
31073;SDS011;17730;53.552;9.940;2022-08-03T12:11:20;9.02;;;2.90;;
31073;SDS011;17730;53.552;9.940;2022-08-03T12:13:47;9.98;;;2.60;;
31073;SDS011;17730;53.552;9.940;2022-08-03T12:16:18;8.02;;;2.70;;
31073;SDS011;17730;53.552;9.940;2022-08-03T12:21:23;7.53;;;2.83;;
31073;SDS011;17730;53.552;9.940;2022-08-03T12:23:49;13.00;;;3.72;;
31073;SDS011;17730;53.552;9.940;2022-08-03T12:26:15;4.63;;;2.40;;
31073;SDS011;17730;53.552;9.940;2022-08-03T12:28:47;12.48;;;3.30;;
31073;SDS011;17730;53.552;9.940;2022-08-03T12:31:13;7.90;;;2.13;;
31073;SDS011;17730;53.552;9.940;2022-08-03T12:36:33;9.93;;;2.72;;
31073;SDS011;17730;53.552;9.940;2022-08-03T12:39:00;5.97;;;2.38;;
31073;SDS011;17730;53.552;9.940;2022-08-03T12:43:59;7.90;;;2.53;;
31073;SDS011;17730;53.552;9.940;2022-08-03T12:46:32;13.32;;;2.95;;
31073;SDS011;17730;53.552;9.940;2022-08-03T12:49:09;12.90;;;3.20;;
31073;SDS011;17730;53.552;9.940;2022-08-03T12:54:07;7.68;;;2.90;;
31073;SDS011;17730;53.552;9.940;2022-08-03T12:57:24;10.82;;;3.40;;
31073;SDS011;17730;53.552;9.940;2022-08-03T12:59:30;14.30;;;2.72;;
31073;SDS011;17730;53.552;9.940;2022-08-03T13:02:13;11.68;;;2.80;;
31073;SDS011;17730;53.552;9.940;2022-08-03T13:04:47;11.57;;;2.83;;
31073;SDS011;17730;53.552;9.940;2022-08-03T13:07:15;14.10;;;2.40;;
31073;SDS011;17730;53.552;9.940;2022-08-03T13:12:23;8.68;;;2.30;;
31073;SDS011;17730;53.552;9.940;2022-08-03T13:14:59;8.90;;;3.03;;
31073;SDS011;17730;53.552;9.940;2022-08-03T13:17:25;6.53;;;2.53;;
31073;SDS011;17730;53.552;9.940;2022-08-03T13:19:51;8.48;;;2.60;;
31073;SDS011;17730;53.552;9.940;2022-08-03T13:22:18;8.52;;;3.00;;
31073;SDS011;17730;53.552;9.940;2022-08-03T13:24:47;7.90;;;2.58;;
31073;SDS011;17730;53.552;9.940;2022-08-03T13:27:14;8.77;;;2.17;;
31073;SDS011;17730;53.552;9.940;2022-08-03T13:29:40;7.88;;;2.45;;
31073;SDS011;17730;53.552;9.940;2022-08-03T13:32:07;7.70;;;2.95;;
31073;SDS011;17730;53.552;9.940;2022-08-03T13:34:33;13.23;;;3.08;;
31073;SDS011;17730;53.552;9.940;2022-08-03T13:36:59;11.70;;;4.03;;
31073;SDS011;17730;53.552;9.940;2022-08-03T13:39:25;12.43;;;2.88;;
31073;SDS011;17730;53.552;9.940;2022-08-03T13:41:51;7.90;;;2.95;;
31073;SDS011;17730;53.552;9.940;2022-08-03T13:44:17;6.75;;;2.47;;
31073;SDS011;17730;53.552;9.940;2022-08-03T13:46:43;7.53;;;2.60;;
31073;SDS011;17730;53.552;9.940;2022-08-03T13:49:09;8.15;;;2.30;;
31073;SDS011;17730;53.552;9.940;2022-08-03T13:51:35;9.32;;;3.20;;
31073;SDS011;17730;53.552;9.940;2022-08-03T13:54:01;6.88;;;2.33;;
31073;SDS011;17730;53.552;9.940;2022-08-03T13:56:27;5.72;;;2.40;;
31073;SDS011;17730;53.552;9.940;2022-08-03T13:58:53;8.35;;;2.95;;
31073;SDS011;17730;53.552;9.940;2022-08-03T14:01:19;14.00;;;3.00;;
31073;SDS011;17730;53.552;9.940;2022-08-03T14:03:45;10.88;;;3.03;;
31073;SDS011;17730;53.552;9.940;2022-08-03T14:06:14;7.28;;;2.03;;
31073;SDS011;17730;53.552;9.940;2022-08-03T14:08:39;8.13;;;2.60;;
31073;SDS011;17730;53.552;9.940;2022-08-03T14:11:05;9.07;;;2.45;;
31073;SDS011;17730;53.552;9.940;2022-08-03T14:13:31;12.80;;;2.55;;
31073;SDS011;17730;53.552;9.940;2022-08-03T14:15:57;7.60;;;2.40;;
31073;SDS011;17730;53.552;9.940;2022-08-03T14:18:22;5.55;;;2.08;;
31073;SDS011;17730;53.552;9.940;2022-08-03T14:20:48;11.77;;;3.00;;
31073;SDS011;17730;53.552;9.940;2022-08-03T14:23:14;10.45;;;2.83;;
31073;SDS011;17730;53.552;9.940;2022-08-03T14:25:40;8.32;;;2.65;;
31073;SDS011;17730;53.552;9.940;2022-08-03T14:28:06;7.53;;;2.33;;
31073;SDS011;17730;53.552;9.940;2022-08-03T14:30:32;11.00;;;2.60;;
31073;SDS011;17730;53.552;9.940;2022-08-03T14:32:58;10.32;;;2.70;;
31073;SDS011;17730;53.552;9.940;2022-08-03T14:35:27;11.00;;;2.42;;
31073;SDS011;17730;53.552;9.940;2022-08-03T14:37:54;6.43;;;2.33;;
31073;SDS011;17730;53.552;9.940;2022-08-03T14:40:20;8.35;;;3.28;;
31073;SDS011;17730;53.552;9.940;2022-08-03T14:42:46;15.05;;;3.55;;
31073;SDS011;17730;53.552;9.940;2022-08-03T14:45:12;13.80;;;2.63;;
31073;SDS011;17730;53.552;9.940;2022-08-03T14:47:38;6.72;;;2.42;;
31073;SDS011;17730;53.552;9.940;2022-08-03T14:50:04;10.25;;;2.65;;
31073;SDS011;17730;53.552;9.940;2022-08-03T14:52:30;9.13;;;2.78;;
31073;SDS011;17730;53.552;9.940;2022-08-03T14:54:57;8.00;;;2.97;;
31073;SDS011;17730;53.552;9.940;2022-08-03T14:57:25;12.30;;;2.95;;
31073;SDS011;17730;53.552;9.940;2022-08-03T14:59:51;10.43;;;2.35;;
31073;SDS011;17730;53.552;9.940;2022-08-03T15:02:17;5.93;;;2.10;;
31073;SDS011;17730;53.552;9.940;2022-08-03T15:04:43;5.88;;;2.78;;
31073;SDS011;17730;53.552;9.940;2022-08-03T15:07:09;7.97;;;3.20;;
31073;SDS011;17730;53.552;9.940;2022-08-03T15:09:34;13.07;;;2.75;;
31073;SDS011;17730;53.552;9.940;2022-08-03T15:12:02;7.75;;;2.20;;
31073;SDS011;17730;53.552;9.940;2022-08-03T15:14:28;8.50;;;2.90;;
31073;SDS011;17730;53.552;9.940;2022-08-03T15:16:53;11.82;;;2.47;;
31073;SDS011;17730;53.552;9.940;2022-08-03T15:19:19;7.93;;;2.75;;
31073;SDS011;17730;53.552;9.940;2022-08-03T15:21:45;11.57;;;2.58;;
31073;SDS011;17730;53.552;9.940;2022-08-03T15:24:11;5.68;;;2.60;;
31073;SDS011;17730;53.552;9.940;2022-08-03T15:26:36;5.65;;;2.10;;
31073;SDS011;17730;53.552;9.940;2022-08-03T15:29:02;7.40;;;2.60;;
31073;SDS011;17730;53.552;9.940;2022-08-03T15:31:28;11.05;;;3.55;;
31073;SDS011;17730;53.552;9.940;2022-08-03T15:33:53;8.32;;;2.47;;
31073;SDS011;17730;53.552;9.940;2022-08-03T15:36:19;10.02;;;2.85;;
31073;SDS011;17730;53.552;9.940;2022-08-03T15:38:46;10.85;;;2.58;;
31073;SDS011;17730;53.552;9.940;2022-08-03T15:41:13;6.68;;;2.95;;